Time;durP1;ratioP1;P1;durP2;ratioP2;P2;SDS_P1;SDS_P2;PMS_P1;PMS_P2;Temp;Humidity;BMP_temperature;BMP_pressure;BME280_temperature;BME280_humidity;BME280_pressure;Samples;Min_cycle;Max_cycle;Signal;HPM_P1;HPM_P2
2023/11/10 00:02:17;;;;;;;7.20;1.85;;;;;;;;;;6306487;22;20011;-82
2023/11/10 00:04:51;;;;;;;8.40;1.80;;;;;;;;;;6307469;22;20023;-82
2023/11/10 00:07:21;;;;;;;7.30;1.70;;;;;;;;;;6280593;22;20023;-82
2023/11/10 00:09:51;;;;;;;8.85;2.78;;;;;;;;;;6308841;22;20019;-84
2023/11/10 00:12:22;;;;;;;4.15;1.95;;;;;;;;;;6308316;22;20019;-85
2023/11/10 00:14:52;;;;;;;5.63;3.03;;;;;;;;;;6280326;22;20026;-81
2023/11/10 00:17:22;;;;;;;6.25;2.03;;;;;;;;;;6281087;22;20350;-81
2023/11/10 00:19:52;;;;;;;6.40;1.65;;;;;;;;;;6307670;22;20015;-82
2023/11/10 00:22:22;;;;;;;3.90;1.77;;;;;;;;;;6255831;22;20117;-81
2023/11/10 00:24:53;;;;;;;6.25;1.90;;;;;;;;;;6307969;22;20011;-81
2023/11/10 00:27:23;;;;;;;6.03;1.75;;;;;;;;;;6308132;22;20422;-84
2023/11/10 00:29:53;;;;;;;5.22;1.90;;;;;;;;;;6307969;22;20015;-81
2023/11/10 00:32:24;;;;;;;5.85;1.67;;;;;;;;;;6308241;22;20026;-82
2023/11/10 00:34:54;;;;;;;7.07;1.85;;;;;;;;;;6279998;22;20011;-81
2023/11/10 00:37:25;;;;;;;7.00;1.67;;;;;;;;;;6280741;22;20015;-80
2023/11/10 00:39:57;;;;;;;6.90;1.88;;;;;;;;;;6281258;22;20026;-82
2023/11/10 00:42:28;;;;;;;7.35;2.25;;;;;;;;;;6319221;22;20014;-80
2023/11/10 00:44:59;;;;;;;6.55;1.90;;;;;;;;;;6319978;22;20012;-83
2023/11/10 00:47:30;;;;;;;7.53;2.08;;;;;;;;;;6309571;22;20018;-81
2023/11/10 00:50:00;;;;;;;7.60;1.83;;;;;;;;;;6280513;22;20023;-80
2023/11/10 00:52:30;;;;;;;4.60;1.80;;;;;;;;;;6319611;22;20461;-83
2023/11/10 00:55:00;;;;;;;4.78;1.90;;;;;;;;;;6307942;22;20022;-82
2023/11/10 00:57:31;;;;;;;4.20;2.08;;;;;;;;;;6280504;22;20469;-84
2023/11/10 01:00:01;;;;;;;5.53;2.15;;;;;;;;;;6308451;22;20021;-82
2023/11/10 01:02:31;;;;;;;7.82;2.20;;;;;;;;;;6282054;22;20414;-82
2023/11/10 01:05:01;;;;;;;7.95;2.15;;;;;;;;;;6280677;22;20438;-81
2023/11/10 01:07:31;;;;;;;5.72;2.20;;;;;;;;;;6308393;22;20027;-81
2023/11/10 01:10:01;;;;;;;7.03;2.03;;;;;;;;;;6308469;22;20011;-84
2023/11/10 01:12:32;;;;;;;5.68;1.77;;;;;;;;;;6308360;22;20030;-84
2023/11/10 01:15:02;;;;;;;5.15;2.10;;;;;;;;;;6279145;22;20015;-86
2023/11/10 01:17:32;;;;;;;8.23;2.13;;;;;;;;;;6307561;22;20023;-84
2023/11/10 01:20:02;;;;;;;6.10;2.10;;;;;;;;;;6307906;22;20446;-82
2023/11/10 01:22:32;;;;;;;4.75;1.90;;;;;;;;;;6307764;22;20018;-81
2023/11/10 01:25:05;;;;;;;7.65;1.85;;;;;;;;;;6308177;22;20008;-83
2023/11/10 01:27:36;;;;;;;7.72;2.22;;;;;;;;;;6318986;22;20012;-83
2023/11/10 01:30:06;;;;;;;6.50;1.70;;;;;;;;;;6255484;22;20030;-82
2023/11/10 01:32:37;;;;;;;4.07;2.10;;;;;;;;;;6318168;22;20007;-82
2023/11/10 01:35:08;;;;;;;5.10;1.90;;;;;;;;;;6317871;22;20016;-83
2023/11/10 01:37:41;;;;;;;7.05;1.98;;;;;;;;;;6308030;22;20015;-84
2023/11/10 01:40:12;;;;;;;4.88;1.63;;;;;;;;;;6318785;22;20070;-84
2023/11/10 01:42:42;;;;;;;9.38;2.05;;;;;;;;;;6318425;22;20019;-84
2023/11/10 01:45:14;;;;;;;9.30;1.92;;;;;;;;;;6291908;22;20446;-83
2023/11/10 01:47:45;;;;;;;4.30;1.95;;;;;;;;;;6308740;22;20011;-84
2023/11/10 01:50:16;;;;;;;14.80;1.98;;;;;;;;;;6318716;22;20018;-86
2023/11/10 01:52:48;;;;;;;4.25;1.83;;;;;;;;;;6318569;22;20015;-83
2023/11/10 01:55:18;;;;;;;8.38;2.30;;;;;;;;;;6292210;22;20319;-84
2023/11/10 01:57:49;;;;;;;8.38;2.65;;;;;;;;;;6280070;22;20023;-84
2023/11/10 02:00:20;;;;;;;6.38;2.35;;;;;;;;;;6281029;22;20015;-86
2023/11/10 02:02:51;;;;;;;6.40;2.17;;;;;;;;;;6254974;22;20454;-84
2023/11/10 02:05:21;;;;;;;5.82;2.75;;;;;;;;;;6280628;22;20022;-85
2023/11/10 02:07:51;;;;;;;8.35;2.50;;;;;;;;;;6280934;22;20019;-84
2023/11/10 02:10:22;;;;;;;8.20;2.70;;;;;;;;;;6279566;22;20018;-86
2023/11/10 02:12:53;;;;;;;13.80;2.50;;;;;;;;;;6280271;22;20020;-84
2023/11/10 02:15:25;;;;;;;10.50;2.47;;;;;;;;;;6314285;22;20322;-83
2023/11/10 02:17:55;;;;;;;14.55;2.58;;;;;;;;;;6279717;22;20015;-87
2023/11/10 02:20:25;;;;;;;12.52;3.05;;;;;;;;;;6308132;22;20426;-84
2023/11/10 02:22:56;;;;;;;8.23;3.10;;;;;;;;;;6280284;22;20015;-84
2023/11/10 02:25:26;;;;;;;8.43;3.17;;;;;;;;;;6307351;22;20019;-85
2023/11/10 02:27:56;;;;;;;10.35;2.63;;;;;;;;;;6307737;22;20016;-81
2023/11/10 02:30:26;;;;;;;8.65;2.65;;;;;;;;;;6285033;22;20019;-84
2023/11/10 02:32:55;;;;;;;14.27;2.70;;;;;;;;;;6317995;22;20011;-81
2023/11/10 02:35:26;;;;;;;11.75;3.10;;;;;;;;;;6318271;22;20018;-81
2023/11/10 02:37:57;;;;;;;16.42;3.05;;;;;;;;;;6286606;22;20025;-82
2023/11/10 02:40:27;;;;;;;11.63;3.60;;;;;;;;;;6309620;22;20029;-84
2023/11/10 02:42:57;;;;;;;11.13;2.70;;;;;;;;;;6307841;22;20007;-84
2023/11/10 02:45:27;;;;;;;30.95;3.08;;;;;;;;;;6307782;22;20015;-84
2023/11/10 02:47:58;;;;;;;18.55;2.75;;;;;;;;;;6307997;22;20012;-82
2023/11/10 02:50:28;;;;;;;16.95;3.67;;;;;;;;;;6279658;22;20023;-83
2023/11/10 02:52:58;;;;;;;18.85;3.55;;;;;;;;;;6308815;22;20015;-82
2023/11/10 02:55:29;;;;;;;10.73;3.15;;;;;;;;;;6292146;22;20019;-84
2023/11/10 02:57:59;;;;;;;11.95;3.38;;;;;;;;;;6307538;22;20022;-84
2023/11/10 03:00:30;;;;;;;14.40;3.35;;;;;;;;;;6307990;22;20426;-81
2023/11/10 03:03:00;;;;;;;18.40;3.65;;;;;;;;;;6307607;22;20016;-83
2023/11/10 03:05:34;;;;;;;22.60;3.70;;;;;;;;;;6281761;22;20446;-82
2023/11/10 03:08:05;;;;;;;31.63;4.50;;;;;;;;;;6279306;22;20022;-83
2023/11/10 03:10:36;;;;;;;29.70;3.55;;;;;;;;;;6317454;22;20015;-81
2023/11/10 03:13:07;;;;;;;22.60;3.17;;;;;;;;;;6318074;22;20014;-81
2023/11/10 03:15:37;;;;;;;15.13;3.35;;;;;;;;;;6307636;22;20015;-82
2023/11/10 03:18:09;;;;;;;18.42;3.58;;;;;;;;;;6307503;22;20011;-82
2023/11/10 03:20:40;;;;;;;;;;;;;;;;;;6318671;22;20012;-81
2023/11/10 03:23:10;;;;;;;16.15;2.65;;;;;;;;;;6307487;22;19921;-81
2023/11/10 03:25:39;;;;;;;12.15;2.60;;;;;;;;;;6307194;22;20465;-82
2023/11/10 03:28:09;;;;;;;13.15;2.50;;;;;;;;;;6307592;22;20019;-82
2023/11/10 03:30:40;;;;;;;14.65;2.28;;;;;;;;;;6279515;22;20027;-82
2023/11/10 03:33:12;;;;;;;5.22;2.13;;;;;;;;;;6317417;22;20450;-82
2023/11/10 03:35:42;;;;;;;5.50;2.30;;;;;;;;;;6308111;22;20015;-81
2023/11/10 03:38:11;;;;;;;6.47;2.40;;;;;;;;;;6281535;22;20019;-81
2023/11/10 03:40:41;;;;;;;16.38;2.90;;;;;;;;;;6308299;22;20022;-81
2023/11/10 03:43:11;;;;;;;17.55;2.47;;;;;;;;;;6282139;22;20019;-82
2023/11/10 03:45:41;;;;;;;9.00;2.88;;;;;;;;;;6282408;22;20015;-81
2023/11/10 03:48:11;;;;;;;12.23;3.40;;;;;;;;;;6308705;22;20018;-81
2023/11/10 03:50:43;;;;;;;10.75;3.47;;;;;;;;;;6310258;22;20015;-82
2023/11/10 03:53:13;;;;;;;15.23;3.72;;;;;;;;;;6319628;22;20019;-81
2023/11/10 03:55:44;;;;;;;11.75;3.80;;;;;;;;;;6319105;22;20011;-81
2023/11/10 03:58:14;;;;;;;11.85;3.60;;;;;;;;;;6308513;22;20015;-81
2023/11/10 04:00:44;;;;;;;12.85;3.70;;;;;;;;;;6307058;22;20019;-82
2023/11/10 04:03:18;;;;;;;12.90;3.40;;;;;;;;;;6317488;22;20007;-80
2023/11/10 04:05:49;;;;;;;14.35;3.80;;;;;;;;;;6319160;22;20018;-81
2023/11/10 04:08:20;;;;;;;10.88;3.88;;;;;;;;;;6319262;22;20307;-82
2023/11/10 04:10:52;;;;;;;11.73;3.83;;;;;;;;;;6256120;22;20015;-81
2023/11/10 04:13:24;;;;;;;31.08;6.22;;;;;;;;;;6319557;22;20011;-81
2023/11/10 04:15:56;;;;;;;17.45;3.55;;;;;;;;;;6281261;22;20011;-82
2023/11/10 04:18:27;;;;;;;12.20;2.72;;;;;;;;;;6320127;22;20007;-83
2023/11/10 04:20:57;;;;;;;11.55;2.60;;;;;;;;;;6308620;22;20038;-81
2023/11/10 04:23:27;;;;;;;18.40;2.60;;;;;;;;;;6308157;22;20331;-81
2023/11/10 04:25:57;;;;;;;6.32;2.20;;;;;;;;;;6282219;22;20026;-81
2023/11/10 04:28:28;;;;;;;12.43;2.17;;;;;;;;;;6308536;22;20015;-80
2023/11/10 04:30:58;;;;;;;12.25;2.63;;;;;;;;;;6280489;22;20016;-81
2023/11/10 04:33:28;;;;;;;16.75;2.95;;;;;;;;;;6309448;22;20015;-81
2023/11/10 04:35:58;;;;;;;13.50;2.78;;;;;;;;;;6308943;22;20011;-81
2023/11/10 04:38:28;;;;;;;13.65;2.67;;;;;;;;;;6308436;22;20457;-81
2023/11/10 04:40:59;;;;;;;10.75;2.50;;;;;;;;;;6309273;22;20018;-81
2023/11/10 04:43:30;;;;;;;14.50;2.75;;;;;;;;;;6320083;22;20018;-81
2023/11/10 04:46:04;;;;;;;8.23;2.20;;;;;;;;;;6319480;22;20014;-81
2023/11/10 04:48:34;;;;;;;9.27;2.88;;;;;;;;;;6320102;22;20022;-81
2023/11/10 04:51:05;;;;;;;21.27;3.10;;;;;;;;;;6308226;22;20012;-82
2023/11/10 04:53:36;;;;;;;13.90;4.35;;;;;;;;;;6318173;22;20011;-81
2023/11/10 04:56:07;;;;;;;15.98;3.85;;;;;;;;;;6318941;22;20023;-81
2023/11/10 04:58:38;;;;;;;29.40;4.85;;;;;;;;;;6319218;22;20439;-81
2023/11/10 05:01:08;;;;;;;14.93;4.47;;;;;;;;;;6309328;22;20011;-81
2023/11/10 05:03:39;;;;;;;22.45;5.38;;;;;;;;;;6308455;22;20011;-82
2023/11/10 05:06:09;;;;;;;17.75;4.22;;;;;;;;;;6279931;22;20026;-81
2023/11/10 05:08:39;;;;;;;12.10;3.90;;;;;;;;;;6280148;22;20454;-81
2023/11/10 05:11:11;;;;;;;12.27;3.65;;;;;;;;;;6307722;22;20015;-81
2023/11/10 05:13:42;;;;;;;;;;;;;;;;;;6281371;22;20018;-81
2023/11/10 05:16:12;;;;;;;14.18;3.28;;;;;;;;;;6308178;22;19915;-82
2023/11/10 05:18:43;;;;;;;20.95;3.53;;;;;;;;;;6281187;22;20016;-82
2023/11/10 05:21:17;;;;;;;14.82;3.80;;;;;;;;;;6318587;22;20011;-82
2023/11/10 05:23:48;;;;;;;27.63;4.90;;;;;;;;;;6318987;22;20315;-81
2023/11/10 05:26:19;;;;;;;18.73;6.60;;;;;;;;;;6292308;22;20018;-82
2023/11/10 05:28:52;;;;;;;17.35;6.10;;;;;;;;;;6281051;22;20027;-82
2023/11/10 05:31:24;;;;;;;23.58;6.78;;;;;;;;;;6318411;22;20338;-83
2023/11/10 05:33:55;;;;;;;29.70;5.75;;;;;;;;;;6308732;22;20022;-83
2023/11/10 05:36:26;;;;;;;14.80;4.45;;;;;;;;;;6318395;22;20014;-83
2023/11/10 05:38:56;;;;;;;12.23;4.05;;;;;;;;;;6281423;22;20008;-83
2023/11/10 05:41:26;;;;;;;14.50;4.07;;;;;;;;;;6281730;22;20026;-82
2023/11/10 05:43:57;;;;;;;12.63;3.95;;;;;;;;;;6307440;22;20022;-82
2023/11/10 05:46:28;;;;;;;15.07;3.45;;;;;;;;;;6291540;22;20007;-82
2023/11/10 05:48:58;;;;;;;9.25;3.22;;;;;;;;;;6308408;22;20016;-83
2023/11/10 05:51:28;;;;;;;12.27;3.40;;;;;;;;;;6307980;22;20015;-82
2023/11/10 05:53:58;;;;;;;9.52;3.53;;;;;;;;;;6280239;22;20469;-83
2023/11/10 05:56:28;;;;;;;8.80;3.58;;;;;;;;;;6308010;22;20007;-82
2023/11/10 05:59:00;;;;;;;10.43;3.70;;;;;;;;;;6307699;22;20023;-82
2023/11/10 06:01:31;;;;;;;7.13;3.63;;;;;;;;;;6318090;22;20018;-82
2023/11/10 06:04:01;;;;;;;11.60;3.65;;;;;;;;;;6308320;22;20018;-82
2023/11/10 06:06:32;;;;;;;10.95;3.65;;;;;;;;;;6308369;22;20018;-83
2023/11/10 06:09:02;;;;;;;13.50;5.45;;;;;;;;;;6307370;22;20019;-83
2023/11/10 06:11:32;;;;;;;11.80;5.40;;;;;;;;;;6307691;22;20019;-82
2023/11/10 06:14:21;;;;;;;17.05;5.43;;;;;;;;;;6295730;22;20034;-82
2023/11/10 06:16:53;;;;;;;11.60;5.35;;;;;;;;;;6318245;22;20011;-82
2023/11/10 06:19:23;;;;;;;19.63;5.00;;;;;;;;;;6308114;22;20426;-82
2023/11/10 06:21:53;;;;;;;17.88;5.57;;;;;;;;;;6307726;22;20011;-82
2023/11/10 06:24:25;;;;;;;13.75;5.85;;;;;;;;;;6291933;22;20015;-82
2023/11/10 06:26:56;;;;;;;20.77;5.40;;;;;;;;;;6308483;22;20018;-82
2023/11/10 06:29:26;;;;;;;13.75;5.85;;;;;;;;;;6307578;22;20346;-83
2023/11/10 06:31:56;;;;;;;15.70;5.97;;;;;;;;;;6305269;22;20015;-83
2023/11/10 06:34:29;;;;;;;13.93;6.15;;;;;;;;;;6317168;22;20012;-82
2023/11/10 06:37:01;;;;;;;21.08;5.88;;;;;;;;;;6305606;22;20461;-82
2023/11/10 06:39:32;;;;;;;52.25;7.30;;;;;;;;;;6279370;22;20012;-82
2023/11/10 06:42:02;;;;;;;24.35;7.00;;;;;;;;;;6317136;22;20015;-82
2023/11/10 06:44:32;;;;;;;12.85;5.75;;;;;;;;;;6279001;22;20030;-83
2023/11/10 06:47:03;;;;;;;30.95;6.68;;;;;;;;;;6307145;22;20334;-82
2023/11/10 06:49:34;;;;;;;35.90;6.78;;;;;;;;;;6317246;22;20037;-82
2023/11/10 06:52:04;;;;;;;55.08;23.58;;;;;;;;;;6278499;22;20026;-82
2023/11/10 06:54:34;;;;;;;45.55;9.63;;;;;;;;;;6307024;22;20024;-82
2023/11/10 06:57:05;;;;;;;29.13;7.32;;;;;;;;;;6308237;22;20026;-85
2023/11/10 06:59:35;;;;;;;27.23;7.00;;;;;;;;;;6277974;22;20023;-82
2023/11/10 07:02:09;;;;;;;32.22;6.85;;;;;;;;;;6303111;22;20023;-83
2023/11/10 07:04:42;;;;;;;27.73;6.72;;;;;;;;;;6303212;22;20019;-83
2023/11/10 07:07:12;;;;;;;22.15;6.20;;;;;;;;;;6315021;22;20018;-83
2023/11/10 07:09:42;;;;;;;35.00;6.50;;;;;;;;;;6277660;22;20327;-83
2023/11/10 07:12:12;;;;;;;38.28;6.03;;;;;;;;;;6304398;22;20020;-83
2023/11/10 07:14:42;;;;;;;31.38;4.53;;;;;;;;;;6279344;22;20022;-82
2023/11/10 07:17:15;;;;;;;12.40;3.97;;;;;;;;;;6308583;22;20442;-83
2023/11/10 07:19:46;;;;;;;18.75;3.65;;;;;;;;;;6319429;22;20015;-83
2023/11/10 07:22:16;;;;;;;24.15;4.18;;;;;;;;;;6309225;22;20346;-83
2023/11/10 07:24:46;;;;;;;8.25;3.95;;;;;;;;;;6307265;22;20023;-83
2023/11/10 07:27:16;;;;;;;8.85;3.13;;;;;;;;;;6309686;22;20462;-83
2023/11/10 07:29:46;;;;;;;11.85;3.50;;;;;;;;;;6309308;22;20019;-84
2023/11/10 07:32:18;;;;;;;14.32;3.28;;;;;;;;;;6320048;22;20015;-83
2023/11/10 07:34:50;;;;;;;7.90;2.70;;;;;;;;;;6319591;22;20012;-83
2023/11/10 07:37:20;;;;;;;7.43;2.63;;;;;;;;;;6308635;22;20019;-84
2023/11/10 07:39:50;;;;;;;11.70;5.70;;;;;;;;;;6308857;22;20011;-82
2023/11/10 07:42:21;;;;;;;5.78;2.55;;;;;;;;;;6292673;22;20011;-82
2023/11/10 07:44:51;;;;;;;10.27;3.20;;;;;;;;;;6309110;22;20347;-82
2023/11/10 07:47:21;;;;;;;10.20;3.55;;;;;;;;;;6307842;22;20030;-83
2023/11/10 07:49:51;;;;;;;10.90;3.72;;;;;;;;;;6308699;22;20011;-83
2023/11/10 07:52:22;;;;;;;13.38;4.38;;;;;;;;;;6281071;22;20307;-83
2023/11/10 07:54:52;;;;;;;6.15;3.22;;;;;;;;;;6319259;22;20008;-83
2023/11/10 07:57:29;;;;;;;7.95;3.60;;;;;;;;;;6319087;22;20019;-82
2023/11/10 08:00:00;;;;;;;9.00;3.33;;;;;;;;;;6319861;22;20011;-83
2023/11/10 08:02:39;;;;;;;9.18;3.25;;;;;;;;;;6318897;22;20026;-83
2023/11/10 08:05:10;;;;;;;6.45;2.97;;;;;;;;;;6319848;22;20011;-83
2023/11/10 08:07:40;;;;;;;7.45;3.75;;;;;;;;;;6319193;22;20011;-84
2023/11/10 08:10:10;;;;;;;7.13;3.72;;;;;;;;;;6309229;22;20019;-82
2023/11/10 08:12:40;;;;;;;10.20;4.47;;;;;;;;;;6313661;22;20026;-83
2023/11/10 08:15:10;;;;;;;14.55;5.20;;;;;;;;;;6291896;22;20019;-84
2023/11/10 08:17:40;;;;;;;11.15;5.68;;;;;;;;;;6319278;22;20015;-83
2023/11/10 08:20:11;;;;;;;12.50;5.28;;;;;;;;;;6312756;22;20011;-82
2023/11/10 08:22:41;;;;;;;10.23;4.93;;;;;;;;;;6308100;22;20023;-85
2023/11/10 08:25:11;;;;;;;8.75;4.32;;;;;;;;;;6308648;22;20007;-81
2023/11/10 08:27:41;;;;;;;8.52;3.83;;;;;;;;;;6308322;22;20446;-82
2023/11/10 08:30:13;;;;;;;9.02;4.80;;;;;;;;;;6309051;22;20019;-83
2023/11/10 08:32:44;;;;;;;14.32;5.15;;;;;;;;;;6319257;22;20007;-83
2023/11/10 08:35:16;;;;;;;10.38;4.38;;;;;;;;;;6281411;22;20026;-83
2023/11/10 08:37:46;;;;;;;;;;;;;;;;;;6319587;22;20007;-82
2023/11/10 08:40:16;;;;;;;10.10;4.88;;;;;;;;;;6308923;22;20219;-84
2023/11/10 08:42:46;;;;;;;15.75;5.53;;;;;;;;;;6309016;22;20038;-83
2023/11/10 08:45:17;;;;;;;13.18;5.30;;;;;;;;;;6281292;22;20015;-82
2023/11/10 08:47:47;;;;;;;13.88;5.85;;;;;;;;;;6308412;22;20457;-82
2023/11/10 08:50:17;;;;;;;9.88;4.82;;;;;;;;;;6308142;22;20442;-82
2023/11/10 08:52:49;;;;;;;13.02;5.03;;;;;;;;;;6319741;22;20007;-82
2023/11/10 08:55:21;;;;;;;12.27;4.70;;;;;;;;;;6281484;22;20450;-82
2023/11/10 08:57:51;;;;;;;12.23;4.82;;;;;;;;;;6279738;22;20026;-84
2023/11/10 09:00:22;;;;;;;13.18;5.75;;;;;;;;;;6318715;22;20008;-82
2023/11/10 09:02:55;;;;;;;14.50;5.95;;;;;;;;;;6255624;22;20015;-83
2023/11/10 09:05:26;;;;;;;12.70;5.60;;;;;;;;;;6280944;22;20131;-83
2023/11/10 09:07:56;;;;;;;10.93;4.97;;;;;;;;;;6308472;22;20019;-82
2023/11/10 09:10:26;;;;;;;12.23;4.35;;;;;;;;;;6308106;22;20019;-83
2023/11/10 09:12:56;;;;;;;7.35;3.70;;;;;;;;;;6307960;22;20338;-83
2023/11/10 09:15:26;;;;;;;7.05;3.80;;;;;;;;;;6308434;22;20019;-83
2023/11/10 09:17:56;;;;;;;8.88;3.88;;;;;;;;;;6308031;22;20438;-83
2023/11/10 09:20:26;;;;;;;9.40;3.83;;;;;;;;;;6308128;22;20015;-82
2023/11/10 09:22:58;;;;;;;8.93;3.97;;;;;;;;;;6308163;22;20012;-83
2023/11/10 09:25:30;;;;;;;9.00;4.70;;;;;;;;;;6291869;22;20018;-83
2023/11/10 09:28:01;;;;;;;9.88;4.70;;;;;;;;;;6308659;22;20038;-83
2023/11/10 09:30:34;;;;;;;8.88;4.35;;;;;;;;;;6318680;22;20015;-83
2023/11/10 09:33:04;;;;;;;6.70;3.42;;;;;;;;;;6309004;22;20323;-83
2023/11/10 09:35:37;;;;;;;12.40;3.50;;;;;;;;;;6318870;22;20014;-83
2023/11/10 09:38:09;;;;;;;9.48;3.33;;;;;;;;;;6317814;22;20018;-83
2023/11/10 09:40:40;;;;;;;7.13;3.00;;;;;;;;;;6318805;22;20025;-83
2023/11/10 09:43:10;;;;;;;7.80;3.40;;;;;;;;;;6307690;22;20030;-82
2023/11/10 09:45:50;;;;;;;11.10;3.58;;;;;;;;;;6308731;22;20016;-82
2023/11/10 09:48:22;;;;;;;12.95;3.35;;;;;;;;;;6318684;22;20007;-82
2023/11/10 09:50:54;;;;;;;;;;;;;;;;;;6319052;22;20017;-82
2023/11/10 09:53:25;;;;;;;9.40;3.95;;;;;;;;;;6318391;22;19915;-81
2023/11/10 09:55:57;;;;;;;7.25;4.50;;;;;;;;;;6318022;22;20461;-81
2023/11/10 09:58:28;;;;;;;12.73;4.45;;;;;;;;;;6308534;22;20426;-82
2023/11/10 10:00:59;;;;;;;10.30;5.03;;;;;;;;;;6317547;22;20011;-82
2023/11/10 10:03:29;;;;;;;10.00;4.88;;;;;;;;;;6314594;22;20008;-84
2023/11/10 10:06:01;;;;;;;11.52;5.13;;;;;;;;;;6308300;22;20330;-81
2023/11/10 10:08:31;;;;;;;16.35;6.10;;;;;;;;;;6291156;22;20011;-82
2023/11/10 10:11:03;;;;;;;15.82;5.55;;;;;;;;;;6307134;22;20011;-82
2023/11/10 10:13:39;;;;;;;12.38;4.40;;;;;;;;;;6318189;22;20110;-81
2023/11/10 10:16:12;;;;;;;21.10;4.28;;;;;;;;;;6291445;22;20011;-83
2023/11/10 10:18:46;;;;;;;12.50;3.90;;;;;;;;;;6291219;22;20007;-82
2023/11/10 10:21:17;;;;;;;12.48;3.63;;;;;;;;;;6318212;22;20011;-82
2023/11/10 10:23:49;;;;;;;9.20;3.20;;;;;;;;;;6317580;22;20007;-82
2023/11/10 10:26:20;;;;;;;8.18;3.60;;;;;;;;;;6317281;22;20442;-82
2023/11/10 10:28:50;;;;;;;10.65;3.78;;;;;;;;;;6291060;22;20019;-82
2023/11/10 10:31:20;;;;;;;17.00;3.13;;;;;;;;;;6306988;22;20019;-83
2023/11/10 10:33:51;;;;;;;9.63;3.08;;;;;;;;;;6281477;22;20026;-83
2023/11/10 10:36:21;;;;;;;6.93;2.65;;;;;;;;;;6307455;22;20023;-83
2023/11/10 10:38:53;;;;;;;5.95;2.30;;;;;;;;;;6308049;22;20015;-83
2023/11/10 10:41:26;;;;;;;8.80;2.75;;;;;;;;;;6291169;22;20019;-83
2023/11/10 10:43:56;;;;;;;5.10;2.47;;;;;;;;;;6317561;22;20014;-83
2023/11/10 10:46:38;;;;;;;5.65;2.85;;;;;;;;;;6278652;22;20019;-83
2023/11/10 10:49:12;;;;;;;9.25;4.22;;;;;;;;;;6279615;22;20027;-84
2023/11/10 10:51:44;;;;;;;13.40;6.40;;;;;;;;;;6317369;22;20007;-84
2023/11/10 10:54:16;;;;;;;9.75;4.22;;;;;;;;;;6318260;22;20014;-84
2023/11/10 10:56:49;;;;;;;11.27;4.75;;;;;;;;;;6290485;22;20479;-84
2023/11/10 10:59:20;;;;;;;10.20;4.10;;;;;;;;;;6290625;22;20330;-83
2023/11/10 11:01:51;;;;;;;8.55;3.00;;;;;;;;;;6307577;22;20349;-83
2023/11/10 11:04:22;;;;;;;11.48;2.88;;;;;;;;;;6309492;22;20019;-85
2023/11/10 11:07:11;;;;;;;8.25;2.30;;;;;;;;;;6306926;22;20015;-85
2023/11/10 11:10:13;;;;;;;8.77;2.33;;;;;;;;;;6307040;22;20011;-86
2023/11/10 11:13:10;;;;;;;7.90;3.13;;;;;;;;;;6307572;22;20008;-86
2023/11/10 11:16:18;;;;;;;6.72;2.70;;;;;;;;;;6307074;22;20450;-86
2023/11/10 11:19:12;;;;;;;9.23;3.40;;;;;;;;;;6265952;22;20020;-86
2023/11/10 11:21:43;;;;;;;9.25;3.03;;;;;;;;;;6278241;22;20015;-84
2023/11/10 11:24:17;;;;;;;6.65;2.28;;;;;;;;;;6289513;22;20015;-85
2023/11/10 11:27:01;;;;;;;9.05;3.17;;;;;;;;;;6316720;22;20011;-85
2023/11/10 11:29:39;;;;;;;5.35;2.50;;;;;;;;;;6315890;22;20008;-85
2023/11/10 11:32:12;;;;;;;;;;;;;;;;;;6278401;22;20483;-85
2023/11/10 11:34:53;;;;;;;5.60;2.40;;;;;;;;;;6316341;22;19915;-85
2023/11/10 11:37:32;;;;;;;8.48;3.70;;;;;;;;;;6253960;22;20016;-86
2023/11/10 11:40:07;;;;;;;7.90;3.67;;;;;;;;;;6279072;22;20303;-84
2023/11/10 11:42:42;;;;;;;10.02;3.90;;;;;;;;;;6316447;22;20007;-84
2023/11/10 11:45:14;;;;;;;7.88;3.55;;;;;;;;;;6316212;22;20014;-85
2023/11/10 11:47:49;;;;;;;9.25;3.00;;;;;;;;;;6317114;22;20335;-84
2023/11/10 11:50:20;;;;;;;9.07;4.03;;;;;;;;;;6316204;22;20011;-87
2023/11/10 11:52:50;;;;;;;7.53;3.45;;;;;;;;;;6306082;22;20015;-82
2023/11/10 11:55:21;;;;;;;8.93;3.33;;;;;;;;;;6305619;22;20390;-83
2023/11/10 11:57:51;;;;;;;10.15;3.70;;;;;;;;;;6316329;22;20015;-83
2023/11/10 12:00:22;;;;;;;6.95;2.95;;;;;;;;;;6305715;22;20489;-82
2023/11/10 12:02:57;;;;;;;8.13;3.15;;;;;;;;;;6316742;22;20011;-84
2023/11/10 12:05:30;;;;;;;7.05;2.60;;;;;;;;;;6291591;22;20012;-86
2023/11/10 12:08:01;;;;;;;7.65;2.95;;;;;;;;;;6317982;22;20008;-83
2023/11/10 12:10:31;;;;;;;6.65;2.90;;;;;;;;;;6307382;22;20362;-83
2023/11/10 12:13:02;;;;;;;9.88;2.60;;;;;;;;;;6307378;22;20011;-83
2023/11/10 12:15:32;;;;;;;5.78;2.38;;;;;;;;;;6307362;22;20026;-85
2023/11/10 12:18:04;;;;;;;5.50;2.67;;;;;;;;;;6280269;22;20018;-86
2023/11/10 12:20:38;;;;;;;5.35;2.40;;;;;;;;;;6290795;22;20061;-85
2023/11/10 12:23:08;;;;;;;6.18;3.03;;;;;;;;;;6253799;22;20012;-85
2023/11/10 12:25:39;;;;;;;7.20;3.15;;;;;;;;;;6280964;22;20019;-82
2023/11/10 12:28:13;;;;;;;5.95;2.40;;;;;;;;;;6307337;22;20434;-83
2023/11/10 12:30:43;;;;;;;3.72;2.10;;;;;;;;;;6290868;22;20014;-83
2023/11/10 12:33:16;;;;;;;4.15;2.03;;;;;;;;;;6307147;22;20350;-82
2023/11/10 12:35:46;;;;;;;6.28;2.13;;;;;;;;;;6317890;22;20007;-83
2023/11/10 12:38:16;;;;;;;4.13;1.73;;;;;;;;;;6317772;22;20011;-82
2023/11/10 12:40:50;;;;;;;3.15;1.58;;;;;;;;;;6307018;22;20011;-83
2023/11/10 12:43:22;;;;;;;5.15;1.75;;;;;;;;;;6289453;22;20011;-82
2023/11/10 12:45:52;;;;;;;3.53;1.73;;;;;;;;;;6309545;22;20346;-84
2023/11/10 12:48:25;;;;;;;3.58;1.90;;;;;;;;;;6281388;22;20059;-86
2023/11/10 12:51:02;;;;;;;2.95;1.92;;;;;;;;;;6318353;22;20015;-84
2023/11/10 12:53:33;;;;;;;4.60;1.90;;;;;;;;;;6318462;22;20011;-84
2023/11/10 12:56:06;;;;;;;4.78;1.92;;;;;;;;;;6307838;22;20015;-87
2023/11/10 12:58:37;;;;;;;3.50;1.95;;;;;;;;;;6318886;22;20485;-84
2023/11/10 13:01:07;;;;;;;4.80;2.03;;;;;;;;;;6309001;22;20437;-82
2023/11/10 13:03:37;;;;;;;4.10;2.13;;;;;;;;;;6279363;22;20358;-86
2023/11/10 13:06:08;;;;;;;5.40;2.17;;;;;;;;;;6280518;22;20016;-81
2023/11/10 13:08:39;;;;;;;4.40;2.03;;;;;;;;;;6319323;22;20011;-83
2023/11/10 13:11:12;;;;;;;6.28;2.33;;;;;;;;;;6305141;22;20031;-82
2023/11/10 13:13:42;;;;;;;7.05;3.70;;;;;;;;;;6317699;22;20468;-85
2023/11/10 13:16:12;;;;;;;11.05;2.70;;;;;;;;;;6306876;22;20015;-85
2023/11/10 13:18:43;;;;;;;5.90;2.88;;;;;;;;;;6280841;22;20358;-86
2023/11/10 13:21:12;;;;;;;4.88;2.42;;;;;;;;;;6307548;22;20019;-83
2023/11/10 13:23:42;;;;;;;4.07;2.22;;;;;;;;;;6307548;22;20011;-86
2023/11/10 13:26:12;;;;;;;5.65;2.28;;;;;;;;;;6280251;22;20354;-83
2023/11/10 13:28:43;;;;;;;5.40;2.60;;;;;;;;;;6307392;22;20015;-86
2023/11/10 13:31:14;;;;;;;;;;;;;;;;;;6317582;22;20322;-85
2023/11/10 13:33:57;;;;;;;62.55;36.63;;;;;;;;;;6317787;22;20360;-86
2023/11/10 13:36:28;;;;;;;7.13;2.78;;;;;;;;;;6317714;22;20007;-86
2023/11/10 13:38:58;;;;;;;4.78;2.30;;;;;;;;;;6307640;22;20019;-86
2023/11/10 13:41:30;;;;;;;6.07;4.07;;;;;;;;;;6307450;22;20011;-86
2023/11/10 14:17:32;;;;;;;5.32;3.28;;;;;;;;;;6255018;23;20024;-86
2023/11/10 14:20:03;;;;;;;5.10;2.85;;;;;;;;;;6216748;23;20656;-85
2023/11/10 14:22:33;;;;;;;6.00;2.85;;;;;;;;;;6215270;23;20050;-85
2023/11/10 14:25:05;;;;;;;6.32;3.08;;;;;;;;;;6243536;23;20016;-83
2023/11/10 14:27:36;;;;;;;7.25;3.33;;;;;;;;;;6254315;23;20008;-84
2023/11/10 14:30:08;;;;;;;7.45;3.00;;;;;;;;;;6254510;23;20012;-83
2023/11/10 14:32:40;;;;;;;4.72;3.00;;;;;;;;;;6255460;23;20019;-84
2023/11/10 14:35:10;;;;;;;5.65;2.47;;;;;;;;;;6246322;23;20008;-86
2023/11/10 14:37:41;;;;;;;5.88;2.80;;;;;;;;;;6252212;23;20026;-86
2023/11/10 14:40:16;;;;;;;4.85;2.83;;;;;;;;;;6267184;23;20134;-87
2023/11/10 14:42:49;;;;;;;5.70;2.80;;;;;;;;;;6256255;23;20016;-87
2023/11/10 14:45:21;;;;;;;7.45;2.70;;;;;;;;;;6268442;23;20016;-88
2023/11/10 14:47:51;;;;;;;;;;;;;;;;;;6268275;23;20016;-83
2023/11/10 14:50:35;;;;;;;6.45;3.22;;;;;;;;;;6254256;23;19922;-82
2023/11/10 14:53:25;;;;;;;4.85;3.00;;;;;;;;;;6255514;23;20316;-83
2023/11/10 14:55:55;;;;;;;4.60;3.28;;;;;;;;;;6216919;23;20016;-83
2023/11/10 14:58:25;;;;;;;6.25;3.33;;;;;;;;;;6219472;23;20019;-80
2023/11/10 15:00:56;;;;;;;5.72;3.53;;;;;;;;;;6244507;23;20012;-81
2023/11/10 15:03:26;;;;;;;6.57;3.28;;;;;;;;;;6245059;23;20031;-83
2023/11/10 15:05:56;;;;;;;4.82;2.88;;;;;;;;;;6244147;23;20448;-87
2023/11/10 15:08:25;;;;;;;5.00;2.95;;;;;;;;;;6243687;23;20016;-86
2023/11/10 15:10:56;;;;;;;3.88;2.55;;;;;;;;;;6241219;23;20019;-86
2023/11/10 15:13:26;;;;;;;5.45;2.95;;;;;;;;;;6244275;23;20027;-85
2023/11/10 15:15:58;;;;;;;4.45;2.75;;;;;;;;;;6218252;23;20343;-86
2023/11/10 15:18:28;;;;;;;;;;;;;;;;;;6253880;23;20016;-84
2023/11/10 15:20:58;;;;;;;5.32;2.65;;;;;;;;;;6243824;23;19916;-83
2023/11/10 15:23:28;;;;;;;4.03;2.38;;;;;;;;;;6243605;23;20024;-83
2023/11/10 15:25:58;;;;;;;4.43;2.25;;;;;;;;;;6243467;23;20024;-84
2023/11/10 15:28:29;;;;;;;4.93;2.50;;;;;;;;;;6254127;23;20008;-83
2023/11/10 15:31:06;;;;;;;3.58;2.35;;;;;;;;;;6216032;23;20024;-86
2023/11/10 15:33:38;;;;;;;4.05;2.50;;;;;;;;;;6253737;23;20012;-85
2023/11/10 15:36:10;;;;;;;3.47;2.28;;;;;;;;;;6253842;23;20016;-82
2023/11/10 15:38:39;;;;;;;;;;;;;;;;;;6219206;23;20020;-82
2023/11/10 15:41:10;;;;;;;4.78;2.50;;;;;;;;;;6245820;23;19922;-85